sensor_id;sensor_type;location;lat;lon;timestamp;pressure;altitude;pressure_sealevel;temperature;humidity
55291;BME280;41155;39.768;2.712;2023-02-11T00:00:53;103420.47;;;5.31;75.40
55291;BME280;41155;39.768;2.712;2023-02-11T00:03:18;103410.44;;;5.33;75.57
55291;BME280;41155;39.768;2.712;2023-02-11T00:05:43;103410.81;;;5.38;75.96
55291;BME280;41155;39.768;2.712;2023-02-11T00:08:12;103413.22;;;5.41;75.48
55291;BME280;41155;39.768;2.712;2023-02-11T00:10:41;103413.22;;;5.41;75.65
55291;BME280;41155;39.768;2.712;2023-02-11T00:13:06;103408.41;;;5.44;76.00
55291;BME280;41155;39.768;2.712;2023-02-11T00:15:32;103403.88;;;5.45;75.99
55291;BME280;41155;39.768;2.712;2023-02-11T00:17:57;103398.81;;;5.42;75.53
55291;BME280;41155;39.768;2.712;2023-02-11T00:20:23;103405.56;;;5.46;76.05
55291;BME280;41155;39.768;2.712;2023-02-11T00:22:48;103395.41;;;5.50;75.95
55291;BME280;41155;39.768;2.712;2023-02-11T00:25:14;103401.91;;;5.47;76.04
55291;BME280;41155;39.768;2.712;2023-02-11T00:27:39;103397.50;;;5.46;76.38
55291;BME280;41155;39.768;2.712;2023-02-11T00:30:05;103398.13;;;5.40;75.88
55291;BME280;41155;39.768;2.712;2023-02-11T00:32:31;103398.91;;;5.32;75.34
55291;BME280;41155;39.768;2.712;2023-02-11T00:34:56;103392.13;;;5.28;75.95
55291;BME280;41155;39.768;2.712;2023-02-11T00:37:21;103391.59;;;5.25;75.81
55291;BME280;41155;39.768;2.712;2023-02-11T00:39:48;103400.56;;;5.33;76.06
55291;BME280;41155;39.768;2.712;2023-02-11T00:42:14;103386.03;;;5.36;75.54
55291;BME280;41155;39.768;2.712;2023-02-11T00:44:40;103386.25;;;5.25;75.01
55291;BME280;41155;39.768;2.712;2023-02-11T00:47:06;103380.19;;;5.22;75.43
55291;BME280;41155;39.768;2.712;2023-02-11T00:49:31;103381.50;;;5.18;74.88
55291;BME280;41155;39.768;2.712;2023-02-11T00:51:56;103372.88;;;5.15;74.95
55291;BME280;41155;39.768;2.712;2023-02-11T00:54:22;103374.78;;;5.05;75.10
55291;BME280;41155;39.768;2.712;2023-02-11T00:56:48;103371.19;;;4.96;75.24
55291;BME280;41155;39.768;2.712;2023-02-11T00:59:13;103371.28;;;5.04;75.74
55291;BME280;41155;39.768;2.712;2023-02-11T01:01:38;103372.81;;;5.07;75.73
55291;BME280;41155;39.768;2.712;2023-02-11T01:04:04;103370.38;;;5.13;75.39
55291;BME280;41155;39.768;2.712;2023-02-11T01:06:29;103361.63;;;5.11;75.84
55291;BME280;41155;39.768;2.712;2023-02-11T01:08:55;103373.06;;;5.13;75.16
55291;BME280;41155;39.768;2.712;2023-02-11T01:11:22;103361.19;;;5.16;74.77
55291;BME280;41155;39.768;2.712;2023-02-11T01:13:48;103363.03;;;5.15;75.29
55291;BME280;41155;39.768;2.712;2023-02-11T01:16:15;103355.84;;;5.16;74.72
55291;BME280;41155;39.768;2.712;2023-02-11T01:18:41;103358.53;;;5.16;74.20
55291;BME280;41155;39.768;2.712;2023-02-11T01:21:08;103358.44;;;5.08;74.24
55291;BME280;41155;39.768;2.712;2023-02-11T01:23:34;103354.69;;;5.01;74.21
55291;BME280;41155;39.768;2.712;2023-02-11T01:25:59;103354.41;;;4.94;74.69
55291;BME280;41155;39.768;2.712;2023-02-11T01:28:27;103352.03;;;4.91;74.57
55291;BME280;41155;39.768;2.712;2023-02-11T01:30:53;103351.44;;;4.97;75.18
55291;BME280;41155;39.768;2.712;2023-02-11T01:33:19;103351.44;;;4.97;75.19
55291;BME280;41155;39.768;2.712;2023-02-11T01:35:45;103355.22;;;5.04;75.15
55291;BME280;41155;39.768;2.712;2023-02-11T01:38:24;103345.47;;;5.03;75.09
55291;BME280;41155;39.768;2.712;2023-02-11T01:40:53;103328.94;;;4.90;75.50
55291;BME280;41155;39.768;2.712;2023-02-11T01:43:19;103341.56;;;4.97;75.42
55291;BME280;41155;39.768;2.712;2023-02-11T01:48:20;103343.50;;;5.05;74.44
55291;BME280;41155;39.768;2.712;2023-02-11T01:50:49;103329.16;;;4.96;74.58
55291;BME280;41155;39.768;2.712;2023-02-11T01:53:17;103339.97;;;5.05;73.83
55291;BME280;41155;39.768;2.712;2023-02-11T01:56:18;103341.19;;;4.92;73.51
55291;BME280;41155;39.768;2.712;2023-02-11T01:59:08;103338.25;;;4.86;73.61
55291;BME280;41155;39.768;2.712;2023-02-11T02:01:37;103350.13;;;4.73;74.31
55291;BME280;41155;39.768;2.712;2023-02-11T02:04:05;103350.84;;;4.75;74.94
55291;BME280;41155;39.768;2.712;2023-02-11T02:06:36;103349.84;;;4.76;75.17
55291;BME280;41155;39.768;2.712;2023-02-11T02:09:10;103346.31;;;4.76;74.93
55291;BME280;41155;39.768;2.712;2023-02-11T02:11:37;103341.69;;;4.78;75.27
55291;BME280;41155;39.768;2.712;2023-02-11T02:14:02;103333.94;;;4.75;75.26
55291;BME280;41155;39.768;2.712;2023-02-11T02:16:34;103333.47;;;4.80;74.53
55291;BME280;41155;39.768;2.712;2023-02-11T02:19:22;103338.41;;;4.84;73.81
55291;BME280;41155;39.768;2.712;2023-02-11T02:22:27;103329.84;;;4.71;73.94
55291;BME280;41155;39.768;2.712;2023-02-11T02:25:23;103318.38;;;4.61;74.14
55291;BME280;41155;39.768;2.712;2023-02-11T02:30:59;103307.63;;;4.33;75.31
55291;BME280;41155;39.768;2.712;2023-02-11T02:33:46;103298.19;;;4.39;75.56
55291;BME280;41155;39.768;2.712;2023-02-11T02:36:31;103309.81;;;4.47;75.79
55291;BME280;41155;39.768;2.712;2023-02-11T02:39:26;103291.25;;;4.46;76.18
55291;BME280;41155;39.768;2.712;2023-02-11T02:41:53;103316.97;;;4.57;76.00
55291;BME280;41155;39.768;2.712;2023-02-11T02:44:20;103309.28;;;4.44;76.40
55291;BME280;41155;39.768;2.712;2023-02-11T02:46:45;103313.34;;;4.48;75.96
55291;BME280;41155;39.768;2.712;2023-02-11T02:49:12;103310.53;;;4.49;75.69
55291;BME280;41155;39.768;2.712;2023-02-11T03:02:34;103295.44;;;4.21;75.01
55291;BME280;41155;39.768;2.712;2023-02-11T03:05:05;103288.13;;;4.23;75.46
55291;BME280;41155;39.768;2.712;2023-02-11T03:12:45;103285.63;;;4.12;76.24
55291;BME280;41155;39.768;2.712;2023-02-11T03:15:12;103291.84;;;4.40;76.23
55291;BME280;41155;39.768;2.712;2023-02-11T03:17:41;103286.78;;;4.37;75.59
55291;BME280;41155;39.768;2.712;2023-02-11T03:20:11;103286.41;;;4.32;75.44
55291;BME280;41155;39.768;2.712;2023-02-11T03:22:45;103293.13;;;4.36;75.33
55291;BME280;41155;39.768;2.712;2023-02-11T03:25:12;103293.13;;;4.36;75.27
55291;BME280;41155;39.768;2.712;2023-02-11T03:28:03;103290.59;;;4.34;75.34
55291;BME280;41155;39.768;2.712;2023-02-11T03:30:34;103290.44;;;4.36;75.18
55291;BME280;41155;39.768;2.712;2023-02-11T03:33:13;103297.09;;;4.32;74.79
55291;BME280;41155;39.768;2.712;2023-02-11T03:35:57;103292.59;;;4.32;74.98
55291;BME280;41155;39.768;2.712;2023-02-11T03:38:32;103291.00;;;4.39;74.91
55291;BME280;41155;39.768;2.712;2023-02-11T03:41:01;103284.09;;;4.37;74.59
55291;BME280;41155;39.768;2.712;2023-02-11T03:43:35;103292.59;;;4.32;75.17
55291;BME280;41155;39.768;2.712;2023-02-11T03:46:03;103291.16;;;4.38;75.27
55291;BME280;41155;39.768;2.712;2023-02-11T03:48:35;103292.69;;;4.40;73.58
55291;BME280;41155;39.768;2.712;2023-02-11T03:51:05;103294.00;;;4.26;73.93
55291;BME280;41155;39.768;2.712;2023-02-11T03:53:32;103298.25;;;4.19;74.37
55291;BME280;41155;39.768;2.712;2023-02-11T03:56:00;103295.84;;;4.16;74.53
55291;BME280;41155;39.768;2.712;2023-02-11T03:58:27;103298.16;;;4.11;74.91
55291;BME280;41155;39.768;2.712;2023-02-11T04:00:52;103298.16;;;4.11;75.43
55291;BME280;41155;39.768;2.712;2023-02-11T04:03:18;103307.56;;;4.15;75.76
55291;BME280;41155;39.768;2.712;2023-02-11T04:05:43;103297.28;;;4.20;75.65
55291;BME280;41155;39.768;2.712;2023-02-11T04:08:09;103302.47;;;4.22;75.56
55291;BME280;41155;39.768;2.712;2023-02-11T04:10:35;103298.53;;;4.26;75.47
55291;BME280;41155;39.768;2.712;2023-02-11T04:13:00;103276.19;;;4.07;75.15
55291;BME280;41155;39.768;2.712;2023-02-11T04:15:26;103301.06;;;4.18;75.30
55291;BME280;41155;39.768;2.712;2023-02-11T04:17:51;103306.72;;;4.15;75.09
55291;BME280;41155;39.768;2.712;2023-02-11T04:20:17;103302.75;;;4.19;74.94
55291;BME280;41155;39.768;2.712;2023-02-11T04:22:42;103299.66;;;4.23;74.94
55291;BME280;41155;39.768;2.712;2023-02-11T04:25:08;103296.97;;;4.23;74.01
55291;BME280;41155;39.768;2.712;2023-02-11T04:27:35;103300.34;;;4.25;73.84
55291;BME280;41155;39.768;2.712;2023-02-11T04:30:01;103299.13;;;4.10;74.46
55291;BME280;41155;39.768;2.712;2023-02-11T04:32:26;103290.97;;;4.02;74.80
55291;BME280;41155;39.768;2.712;2023-02-11T04:34:52;103291.94;;;4.11;75.59
55291;BME280;41155;39.768;2.712;2023-02-11T04:37:19;103247.81;;;3.87;75.45
55291;BME280;41155;39.768;2.712;2023-02-11T04:39:44;103292.94;;;4.10;75.84
55291;BME280;41155;39.768;2.712;2023-02-11T04:42:09;103304.75;;;4.07;75.95
55291;BME280;41155;39.768;2.712;2023-02-11T04:44:35;103295.19;;;4.14;76.00
55291;BME280;41155;39.768;2.712;2023-02-11T04:47:00;103296.00;;;4.15;76.14
55291;BME280;41155;39.768;2.712;2023-02-11T04:49:26;103272.66;;;4.07;76.27
55291;BME280;41155;39.768;2.712;2023-02-11T04:51:51;103299.25;;;4.18;75.94
55291;BME280;41155;39.768;2.712;2023-02-11T04:54:17;103300.91;;;4.19;74.87
55291;BME280;41155;39.768;2.712;2023-02-11T04:56:42;103298.25;;;4.19;74.75
55291;BME280;41155;39.768;2.712;2023-02-11T04:59:08;103293.09;;;4.08;74.65
55291;BME280;41155;39.768;2.712;2023-02-11T05:01:33;103293.09;;;4.08;74.73
55291;BME280;41155;39.768;2.712;2023-02-11T05:03:59;103295.63;;;4.00;75.47
55291;BME280;41155;39.768;2.712;2023-02-11T05:06:25;103273.72;;;3.87;75.83
55291;BME280;41155;39.768;2.712;2023-02-11T05:08:50;103270.19;;;3.86;76.06
55291;BME280;41155;39.768;2.712;2023-02-11T05:11:20;103290.69;;;4.05;76.43
55291;BME280;41155;39.768;2.712;2023-02-11T05:13:46;103281.16;;;4.02;76.81
55291;BME280;41155;39.768;2.712;2023-02-11T05:16:12;103284.19;;;4.07;76.77
55291;BME280;41155;39.768;2.712;2023-02-11T05:18:39;103294.88;;;4.17;75.89
55291;BME280;41155;39.768;2.712;2023-02-11T05:21:10;103294.59;;;4.11;75.48
55291;BME280;41155;39.768;2.712;2023-02-11T05:23:36;103294.34;;;4.04;76.20
55291;BME280;41155;39.768;2.712;2023-02-11T05:26:02;103290.13;;;4.01;75.17
55291;BME280;41155;39.768;2.712;2023-02-11T05:28:28;103277.75;;;4.00;75.57
55291;BME280;41155;39.768;2.712;2023-02-11T05:30:54;103283.53;;;3.96;75.27
55291;BME280;41155;39.768;2.712;2023-02-11T05:33:20;103285.09;;;3.89;75.90
55291;BME280;41155;39.768;2.712;2023-02-11T05:35:45;103281.56;;;3.98;75.96
55291;BME280;41155;39.768;2.712;2023-02-11T05:38:11;103286.78;;;3.99;76.16
55291;BME280;41155;39.768;2.712;2023-02-11T05:40:36;103291.25;;;4.08;76.16
55291;BME280;41155;39.768;2.712;2023-02-11T05:43:02;103289.00;;;4.04;75.67
55291;BME280;41155;39.768;2.712;2023-02-11T05:45:28;103288.41;;;4.10;75.61
55291;BME280;41155;39.768;2.712;2023-02-11T05:47:53;103265.09;;;4.02;75.34
55291;BME280;41155;39.768;2.712;2023-02-11T05:50:19;103263.09;;;4.04;75.03
55291;BME280;41155;39.768;2.712;2023-02-11T05:52:44;103280.44;;;4.00;75.18
55291;BME280;41155;39.768;2.712;2023-02-11T05:55:10;103278.88;;;3.98;75.53
55291;BME280;41155;39.768;2.712;2023-02-11T05:57:35;103277.59;;;4.02;75.66
55291;BME280;41155;39.768;2.712;2023-02-11T06:00:02;103288.72;;;4.07;75.68
55291;BME280;41155;39.768;2.712;2023-02-11T06:02:28;103273.84;;;3.95;75.86
55291;BME280;41155;39.768;2.712;2023-02-11T06:04:53;103272.28;;;3.92;75.92
55291;BME280;41155;39.768;2.712;2023-02-11T06:07:19;103276.09;;;3.90;76.50
55291;BME280;41155;39.768;2.712;2023-02-11T06:09:44;103280.03;;;3.95;76.49
55291;BME280;41155;39.768;2.712;2023-02-11T06:12:10;103274.09;;;4.01;76.11
55291;BME280;41155;39.768;2.712;2023-02-11T06:14:35;103279.31;;;4.03;76.30
55291;BME280;41155;39.768;2.712;2023-02-11T06:17:01;103274.25;;;4.00;76.31
55291;BME280;41155;39.768;2.712;2023-02-11T06:19:27;103276.34;;;3.96;76.36
55291;BME280;41155;39.768;2.712;2023-02-11T06:21:52;103277.22;;;3.97;76.79
55291;BME280;41155;39.768;2.712;2023-02-11T06:24:18;103270.03;;;3.97;76.38
55291;BME280;41155;39.768;2.712;2023-02-11T06:26:43;103270.00;;;4.07;76.27
55291;BME280;41155;39.768;2.712;2023-02-11T06:29:09;103267.19;;;4.08;75.52
55291;BME280;41155;39.768;2.712;2023-02-11T06:31:36;103271.28;;;3.93;75.65
55291;BME280;41155;39.768;2.712;2023-02-11T06:34:02;103271.31;;;3.83;75.75
55291;BME280;41155;39.768;2.712;2023-02-11T06:36:27;103260.63;;;3.83;76.65
55291;BME280;41155;39.768;2.712;2023-02-11T06:38:53;103262.88;;;3.88;76.54
55291;BME280;41155;39.768;2.712;2023-02-11T06:41:19;103266.53;;;3.87;76.72
55291;BME280;41155;39.768;2.712;2023-02-11T06:43:45;103265.81;;;3.95;76.69
55291;BME280;41155;39.768;2.712;2023-02-11T06:46:10;103268.06;;;3.99;76.79
55291;BME280;41155;39.768;2.712;2023-02-11T06:48:36;103264.81;;;3.96;76.18
55291;BME280;41155;39.768;2.712;2023-02-11T06:51:07;103266.53;;;3.97;76.05
55291;BME280;41155;39.768;2.712;2023-02-11T06:53:35;103267.19;;;3.99;75.96
55291;BME280;41155;39.768;2.712;2023-02-11T06:56:06;103268.63;;;3.93;75.92
55291;BME280;41155;39.768;2.712;2023-02-11T06:58:32;103265.53;;;3.98;75.49
55291;BME280;41155;39.768;2.712;2023-02-11T07:00:58;103272.72;;;3.97;75.33
55291;BME280;41155;39.768;2.712;2023-02-11T07:03:24;103252.50;;;3.75;76.25
55291;BME280;41155;39.768;2.712;2023-02-11T07:05:49;103267.50;;;3.96;76.33
55291;BME280;41155;39.768;2.712;2023-02-11T07:08:14;103267.38;;;3.97;76.90
55291;BME280;41155;39.768;2.712;2023-02-11T07:10:40;103266.81;;;3.94;76.75
55291;BME280;41155;39.768;2.712;2023-02-11T07:13:06;103250.78;;;3.84;76.33
55291;BME280;41155;39.768;2.712;2023-02-11T07:15:31;103275.78;;;4.02;76.22
55291;BME280;41155;39.768;2.712;2023-02-11T07:17:57;103289.72;;;4.06;76.68
55291;BME280;41155;39.768;2.712;2023-02-11T07:20:22;103288.00;;;4.05;76.69
55291;BME280;41155;39.768;2.712;2023-02-11T07:22:48;103279.00;;;4.06;76.57
55291;BME280;41155;39.768;2.712;2023-02-11T07:25:13;103285.44;;;4.13;76.76
55291;BME280;41155;39.768;2.712;2023-02-11T07:27:39;103289.25;;;4.11;75.85
55291;BME280;41155;39.768;2.712;2023-02-11T07:30:04;103282.94;;;4.12;76.13
55291;BME280;41155;39.768;2.712;2023-02-11T07:32:30;103280.41;;;4.10;76.17
55291;BME280;41155;39.768;2.712;2023-02-11T07:34:55;103281.50;;;4.17;75.72
55291;BME280;41155;39.768;2.712;2023-02-11T07:37:21;103283.59;;;4.23;74.61
55291;BME280;41155;39.768;2.712;2023-02-11T07:39:47;103285.16;;;4.16;75.45
55291;BME280;41155;39.768;2.712;2023-02-11T07:42:12;103291.16;;;3.91;75.95
55291;BME280;41155;39.768;2.712;2023-02-11T07:44:38;103290.16;;;3.92;76.90
55291;BME280;41155;39.768;2.712;2023-02-11T07:47:03;103292.72;;;3.83;78.18
55291;BME280;41155;39.768;2.712;2023-02-11T07:49:29;103285.06;;;3.98;77.84
55291;BME280;41155;39.768;2.712;2023-02-11T07:51:54;103292.63;;;4.13;77.53
55291;BME280;41155;39.768;2.712;2023-02-11T07:54:20;103288.00;;;4.15;77.85
55291;BME280;41155;39.768;2.712;2023-02-11T07:56:45;103293.00;;;4.27;77.59
55291;BME280;41155;39.768;2.712;2023-02-11T07:59:11;103298.63;;;4.34;77.21
55291;BME280;41155;39.768;2.712;2023-02-11T08:01:36;103295.91;;;4.44;76.88
55291;BME280;41155;39.768;2.712;2023-02-11T08:04:02;103305.50;;;4.37;76.99
55291;BME280;41155;39.768;2.712;2023-02-11T08:06:31;103287.53;;;4.29;76.89
55291;BME280;41155;39.768;2.712;2023-02-11T08:08:57;103298.28;;;4.47;76.42
55291;BME280;41155;39.768;2.712;2023-02-11T08:11:27;103289.56;;;4.45;76.04
55291;BME280;41155;39.768;2.712;2023-02-11T08:13:54;103272.59;;;4.26;75.99
55291;BME280;41155;39.768;2.712;2023-02-11T08:16:25;103290.78;;;4.23;76.52
55291;BME280;41155;39.768;2.712;2023-02-11T08:18:52;103281.94;;;4.13;77.41
55291;BME280;41155;39.768;2.712;2023-02-11T08:21:19;103287.53;;;4.19;76.90
55291;BME280;41155;39.768;2.712;2023-02-11T08:23:45;103289.97;;;4.13;77.40
55291;BME280;41155;39.768;2.712;2023-02-11T08:26:14;103291.91;;;4.20;77.85
55291;BME280;41155;39.768;2.712;2023-02-11T08:28:42;103280.75;;;4.35;77.74
55291;BME280;41155;39.768;2.712;2023-02-11T08:31:25;103284.19;;;4.55;76.71
55291;BME280;41155;39.768;2.712;2023-02-11T08:33:54;103287.09;;;4.61;77.02
55291;BME280;41155;39.768;2.712;2023-02-11T08:36:24;103282.72;;;4.88;76.30
55291;BME280;41155;39.768;2.712;2023-02-11T08:38:50;103281.53;;;5.18;75.89
55291;BME280;41155;39.768;2.712;2023-02-11T08:41:16;103288.44;;;5.38;75.53
55291;BME280;41155;39.768;2.712;2023-02-11T08:43:43;103284.28;;;5.62;75.00
55291;BME280;41155;39.768;2.712;2023-02-11T08:46:16;103291.66;;;5.86;75.07
55291;BME280;41155;39.768;2.712;2023-02-11T08:48:42;103268.97;;;5.98;74.62
55291;BME280;41155;39.768;2.712;2023-02-11T08:51:12;103282.91;;;6.28;72.09
55291;BME280;41155;39.768;2.712;2023-02-11T08:53:38;103287.13;;;6.81;72.62
55291;BME280;41155;39.768;2.712;2023-02-11T08:56:04;103288.69;;;7.00;72.87
55291;BME280;41155;39.768;2.712;2023-02-11T08:58:30;103283.69;;;7.13;72.74
55291;BME280;41155;39.768;2.712;2023-02-11T09:00:56;103283.88;;;7.36;72.42
55291;BME280;41155;39.768;2.712;2023-02-11T09:03:21;103288.75;;;7.49;69.55
55291;BME280;41155;39.768;2.712;2023-02-11T09:05:48;103285.53;;;7.95;68.71
55291;BME280;41155;39.768;2.712;2023-02-11T09:08:15;103258.59;;;8.11;65.43
55291;BME280;41155;39.768;2.712;2023-02-11T09:10:41;103280.78;;;8.69;64.06
55291;BME280;41155;39.768;2.712;2023-02-11T09:13:07;103276.28;;;8.92;62.39
55291;BME280;41155;39.768;2.712;2023-02-11T09:15:33;103287.63;;;9.34;60.48
55291;BME280;41155;39.768;2.712;2023-02-11T09:18:00;103282.84;;;9.82;59.39
55291;BME280;41155;39.768;2.712;2023-02-11T09:20:25;103284.97;;;10.39;58.56
55291;BME280;41155;39.768;2.712;2023-02-11T09:22:52;103283.28;;;10.89;58.94
55291;BME280;41155;39.768;2.712;2023-02-11T09:25:18;103284.09;;;11.47;57.38
55291;BME280;41155;39.768;2.712;2023-02-11T09:27:43;103286.47;;;12.07;55.50
55291;BME280;41155;39.768;2.712;2023-02-11T09:30:09;103286.13;;;12.64;53.23
55291;BME280;41155;39.768;2.712;2023-02-11T09:32:35;103282.94;;;13.09;52.24
55291;BME280;41155;39.768;2.712;2023-02-11T09:35:00;103272.13;;;13.42;48.38
55291;BME280;41155;39.768;2.712;2023-02-11T09:37:26;103274.66;;;13.70;47.21
55291;BME280;41155;39.768;2.712;2023-02-11T09:39:51;103289.19;;;14.22;45.67
55291;BME280;41155;39.768;2.712;2023-02-11T09:45:27;103282.91;;;15.50;42.12
55291;BME280;41155;39.768;2.712;2023-02-11T09:47:57;103281.03;;;15.51;40.15
55291;BME280;41155;39.768;2.712;2023-02-11T09:50:33;103286.38;;;15.89;38.71
55291;BME280;41155;39.768;2.712;2023-02-11T09:53:06;103288.91;;;16.09;38.36
55291;BME280;41155;39.768;2.712;2023-02-11T09:55:46;103278.44;;;16.61;38.08
55291;BME280;41155;39.768;2.712;2023-02-11T09:58:16;103277.00;;;16.59;37.38
55291;BME280;41155;39.768;2.712;2023-02-11T10:01:02;103278.84;;;16.95;37.30
55291;BME280;41155;39.768;2.712;2023-02-11T10:04:08;103282.25;;;17.21;38.15
55291;BME280;41155;39.768;2.712;2023-02-11T10:06:45;103279.75;;;18.20;35.52
55291;BME280;41155;39.768;2.712;2023-02-11T10:12:19;103287.78;;;19.07;34.06
55291;BME280;41155;39.768;2.712;2023-02-11T10:22:42;103286.94;;;19.69;33.07
55291;BME280;41155;39.768;2.712;2023-02-11T10:25:22;103284.00;;;19.76;32.69
55291;BME280;41155;39.768;2.712;2023-02-11T10:27:50;103285.94;;;20.36;32.25
55291;BME280;41155;39.768;2.712;2023-02-11T10:30:25;103293.72;;;20.61;30.93
55291;BME280;41155;39.768;2.712;2023-02-11T10:35:22;103292.88;;;20.61;29.01
55291;BME280;41155;39.768;2.712;2023-02-11T10:37:48;103289.59;;;20.20;30.49
55291;BME280;41155;39.768;2.712;2023-02-11T10:40:20;103296.41;;;20.39;30.33
55291;BME280;41155;39.768;2.712;2023-02-11T10:42:48;103293.13;;;20.59;29.72
55291;BME280;41155;39.768;2.712;2023-02-11T10:45:32;103290.13;;;20.61;28.77
55291;BME280;41155;39.768;2.712;2023-02-11T10:47:58;103289.72;;;20.74;31.01
55291;BME280;41155;39.768;2.712;2023-02-11T10:50:30;103284.88;;;21.08;30.03
55291;BME280;41155;39.768;2.712;2023-02-11T10:53:23;103282.09;;;21.35;29.72
55291;BME280;41155;39.768;2.712;2023-02-11T10:55:54;103286.31;;;21.43;29.86
55291;BME280;41155;39.768;2.712;2023-02-11T10:58:27;103281.34;;;21.77;28.81
55291;BME280;41155;39.768;2.712;2023-02-11T11:00:57;103276.44;;;22.32;28.78
55291;BME280;41155;39.768;2.712;2023-02-11T11:03:26;103277.66;;;22.67;27.82
55291;BME280;41155;39.768;2.712;2023-02-11T11:06:05;103283.47;;;22.75;27.86
55291;BME280;41155;39.768;2.712;2023-02-11T11:08:47;103274.75;;;23.14;26.90
55291;BME280;41155;39.768;2.712;2023-02-11T11:11:21;103254.06;;;23.58;27.14
55291;BME280;41155;39.768;2.712;2023-02-11T11:14:00;103256.75;;;24.58;25.30
55291;BME280;41155;39.768;2.712;2023-02-11T11:16:30;103270.00;;;25.40;24.13
55291;BME280;41155;39.768;2.712;2023-02-11T11:24:05;103261.97;;;27.81;20.38
55291;BME280;41155;39.768;2.712;2023-02-11T11:26:54;103257.41;;;28.27;20.19
55291;BME280;41155;39.768;2.712;2023-02-11T11:31:57;103256.44;;;29.80;18.58
55291;BME280;41155;39.768;2.712;2023-02-11T11:34:31;103255.31;;;30.65;17.73
55291;BME280;41155;39.768;2.712;2023-02-11T11:36:59;103253.38;;;30.91;17.47
55291;BME280;41155;39.768;2.712;2023-02-11T11:39:31;103256.41;;;31.80;16.21
55291;BME280;41155;39.768;2.712;2023-02-11T11:41:59;103254.59;;;32.14;16.29
55291;BME280;41155;39.768;2.712;2023-02-11T11:44:34;103252.75;;;31.88;16.73
55291;BME280;41155;39.768;2.712;2023-02-11T11:55:43;103220.03;;;34.94;14.10
55291;BME280;41155;39.768;2.712;2023-02-11T11:58:22;103218.28;;;35.33;14.12
55291;BME280;41155;39.768;2.712;2023-02-11T12:03:46;103216.97;;;35.94;13.05
55291;BME280;41155;39.768;2.712;2023-02-11T12:07:23;103221.25;;;36.62;12.78
55291;BME280;41155;39.768;2.712;2023-02-11T12:18:07;103209.00;;;37.62;11.68
55291;BME280;41155;39.768;2.712;2023-02-11T12:26:21;103193.19;;;38.11;11.12
55291;BME280;41155;39.768;2.712;2023-02-11T12:39:39;103183.09;;;38.40;11.16
55291;BME280;41155;39.768;2.712;2023-02-11T12:50:24;103178.63;;;34.47;13.53
55291;BME280;41155;39.768;2.712;2023-02-11T12:55:33;103168.41;;;30.36;17.19
55291;BME280;41155;39.768;2.712;2023-02-11T12:58:03;103151.00;;;30.13;17.35
55291;BME280;41155;39.768;2.712;2023-02-11T13:00:43;103166.50;;;27.77;19.62
55291;BME280;41155;39.768;2.712;2023-02-11T13:03:23;103146.31;;;25.70;22.10
55291;BME280;41155;39.768;2.712;2023-02-11T13:05:57;103142.13;;;24.61;24.04
55291;BME280;41155;39.768;2.712;2023-02-11T13:10:54;103149.50;;;23.72;25.69
55291;BME280;41155;39.768;2.712;2023-02-11T13:13:26;103105.25;;;22.25;27.11
55291;BME280;41155;39.768;2.712;2023-02-11T13:17:00;103140.09;;;21.41;29.10
55291;BME280;41155;39.768;2.712;2023-02-11T13:24:09;103133.75;;;20.44;31.50
55291;BME280;41155;39.768;2.712;2023-02-11T13:32:07;103128.41;;;21.71;29.70
55291;BME280;41155;39.768;2.712;2023-02-11T13:40:01;103117.09;;;20.83;31.29
55291;BME280;41155;39.768;2.712;2023-02-11T13:42:29;103124.13;;;21.01;31.30
55291;BME280;41155;39.768;2.712;2023-02-11T13:44:55;103098.66;;;20.46;32.01
55291;BME280;41155;39.768;2.712;2023-02-11T13:47:32;103123.91;;;20.21;32.52
55291;BME280;41155;39.768;2.712;2023-02-11T13:49:59;103124.28;;;20.02;32.12
55291;BME280;41155;39.768;2.712;2023-02-11T13:52:35;103117.00;;;19.30;33.77
55291;BME280;41155;39.768;2.712;2023-02-11T13:55:14;103114.66;;;19.61;33.26
55291;BME280;41155;39.768;2.712;2023-02-11T13:57:44;103107.84;;;19.63;33.44
55291;BME280;41155;39.768;2.712;2023-02-11T14:03:33;103106.66;;;18.99;34.17
55291;BME280;41155;39.768;2.712;2023-02-11T14:06:23;103104.13;;;18.92;34.97
55291;BME280;41155;39.768;2.712;2023-02-11T14:14:27;103103.44;;;18.39;36.08
55291;BME280;41155;39.768;2.712;2023-02-11T14:19:40;103101.16;;;17.67;37.37
55291;BME280;41155;39.768;2.712;2023-02-11T14:24:54;103091.09;;;17.56;37.80
55291;BME280;41155;39.768;2.712;2023-02-11T14:27:23;103093.75;;;17.39;38.03
55291;BME280;41155;39.768;2.712;2023-02-11T14:30:09;103088.78;;;17.24;37.87
55291;BME280;41155;39.768;2.712;2023-02-11T14:41:54;103084.16;;;16.89;40.13
55291;BME280;41155;39.768;2.712;2023-02-11T14:44:23;103078.69;;;16.89;40.17
55291;BME280;41155;39.768;2.712;2023-02-11T14:46:51;103075.84;;;17.08;39.03
55291;BME280;41155;39.768;2.712;2023-02-11T14:49:33;103070.03;;;16.81;39.94
55291;BME280;41155;39.768;2.712;2023-02-11T14:52:14;103076.31;;;16.81;40.13
55291;BME280;41155;39.768;2.712;2023-02-11T14:54:41;103074.28;;;16.88;39.55
55291;BME280;41155;39.768;2.712;2023-02-11T14:57:17;103076.34;;;16.63;40.31
55291;BME280;41155;39.768;2.712;2023-02-11T14:59:57;103076.19;;;16.46;41.14
55291;BME280;41155;39.768;2.712;2023-02-11T15:02:28;103066.91;;;16.23;41.44
55291;BME280;41155;39.768;2.712;2023-02-11T15:04:53;103070.22;;;16.25;41.86
55291;BME280;41155;39.768;2.712;2023-02-11T15:07:19;103060.28;;;16.31;41.35
55291;BME280;41155;39.768;2.712;2023-02-11T15:09:48;103065.19;;;16.11;41.68
55291;BME280;41155;39.768;2.712;2023-02-11T15:12:19;103069.50;;;16.18;41.79
55291;BME280;41155;39.768;2.712;2023-02-11T15:14:52;103073.03;;;16.19;41.61
55291;BME280;41155;39.768;2.712;2023-02-11T15:17:25;103069.13;;;16.15;41.34
55291;BME280;41155;39.768;2.712;2023-02-11T15:19:58;103065.25;;;16.34;41.21
55291;BME280;41155;39.768;2.712;2023-02-11T15:22:34;103066.44;;;16.26;41.49
55291;BME280;41155;39.768;2.712;2023-02-11T15:27:50;103053.72;;;16.09;42.26